Terminal Aerodrome Forecast
Issued by NWS Sterling, VA

Current Version | Previous Version | Graphics & Text | Print | Product List | Glossary On
Versions: 1 2 3 4 5 6 7 8 9 10 11 12 13 14 15 16 17 18 19 20 21 22 23
000
FTUS41 KLWX 261135
TAFIAD
TAF
KIAD 261135Z 2612/2718 29013G21KT P6SM BKN045
     FM261900 28011KT P6SM SCT050
     FM262200 28008KT P6SM FEW050
     FM270000 31004KT P6SM SKC
     FM271000 VRB03KT P6SM BKN100
     FM271600 20007KT P6SM OVC080=

USA.gov is the U.S. government's official web portal to all federal, state and local government web resources and services.